createdAt,value
2018-07-13T00:07:43.846Z,15.00
2018-07-13T00:17:45.090Z,15.10
2018-07-13T00:27:46.340Z,14.90
2018-07-13T00:37:47.583Z,14.80
2018-07-13T00:47:48.830Z,14.70
2018-07-13T00:57:50.103Z,14.70
2018-07-13T01:07:51.378Z,14.60
2018-07-13T01:17:52.623Z,14.70
2018-07-13T01:27:54.032Z,14.70
2018-07-13T01:37:56.041Z,14.50
2018-07-13T01:47:57.297Z,14.50
2018-07-13T02:08:06.261Z,14.30
2018-07-13T02:18:07.529Z,14.20
2018-07-13T02:28:08.786Z,14.10
2018-07-13T02:38:10.071Z,14.10
2018-07-13T02:48:11.324Z,14.20
2018-07-13T02:58:12.573Z,14.10
2018-07-13T03:08:13.950Z,14.10
2018-07-13T03:18:15.214Z,14.00
2018-07-13T03:28:16.476Z,14.00
2018-07-13T03:38:17.756Z,13.90
2018-07-13T03:48:19.805Z,13.80
2018-07-13T03:58:21.059Z,13.80
2018-07-13T04:08:23.080Z,13.90
2018-07-13T04:28:31.028Z,14.10
2018-07-13T04:38:32.308Z,14.30
2018-07-13T04:48:34.207Z,14.50
2018-07-13T04:58:34.916Z,14.90
2018-07-13T05:08:36.170Z,15.00
2018-07-13T05:28:44.590Z,15.80
2018-07-13T05:38:46.610Z,16.90
2018-07-13T05:48:48.650Z,18.40
2018-07-13T05:58:49.923Z,18.40
2018-07-13T06:08:51.954Z,18.50
2018-07-13T06:18:53.242Z,18.50
2018-07-13T06:28:54.503Z,18.80
2018-07-13T06:38:55.863Z,19.50
2018-07-13T06:48:57.133Z,21.60
2018-07-13T06:58:58.391Z,22.90
2018-07-13T07:08:59.668Z,26.60
2018-07-13T07:19:00.918Z,26.50
2018-07-13T07:29:02.170Z,26.30
2018-07-13T07:39:03.442Z,25.90
2018-07-13T07:49:04.868Z,29.40
2018-07-13T07:59:06.143Z,32.30
2018-07-13T08:09:07.563Z,33.40
2018-07-13T08:19:08.822Z,36.30
2018-07-13T08:29:10.090Z,38.70
2018-07-13T08:39:17.279Z,39.50
2018-07-13T08:59:26.007Z,39.60
2018-07-13T09:09:27.268Z,39.80
2018-07-13T09:19:28.543Z,38.80
2018-07-13T09:29:29.809Z,35.90
2018-07-13T09:39:31.069Z,38.20
2018-07-13T09:49:32.335Z,37.80
2018-07-13T09:59:33.607Z,38.50
2018-07-13T10:09:35.644Z,40.70
2018-07-13T10:19:37.048Z,40.70
2018-07-13T10:29:38.312Z,39.50
2018-07-13T10:39:40.340Z,34.30
2018-07-13T10:49:41.607Z,34.20
2018-07-13T10:59:42.873Z,31.70
2018-07-13T11:09:44.140Z,30.60
2018-07-13T11:19:45.419Z,29.50
2018-07-13T11:29:47.477Z,30.60
2018-07-13T11:39:48.690Z,30.50
2018-07-13T11:49:49.944Z,29.90
2018-07-13T11:59:51.182Z,28.50
2018-07-13T12:09:52.435Z,28.20
2018-07-13T12:19:53.726Z,28.60
2018-07-13T12:29:55.707Z,29.70
2018-07-13T12:39:57.795Z,28.90
2018-07-13T12:49:59.755Z,27.50
2018-07-13T13:00:01.175Z,27.40
2018-07-13T13:10:02.461Z,27.20
2018-07-13T13:20:03.706Z,28.20
2018-07-13T13:30:05.750Z,27.70
2018-07-13T13:40:07.007Z,27.70
2018-07-13T13:50:08.278Z,27.60
2018-07-13T14:00:09.542Z,27.40
2018-07-13T14:10:10.966Z,27.60
2018-07-13T14:20:12.304Z,27.60
2018-07-13T14:30:13.558Z,27.80
2018-07-13T14:40:14.875Z,27.40
2018-07-13T14:50:16.430Z,26.70
2018-07-13T15:00:17.782Z,27.00
2018-07-13T15:10:19.147Z,27.60
2018-07-13T15:50:42.220Z,26.30
2018-07-13T16:20:59.198Z,25.90
2018-07-13T16:31:00.447Z,25.70
2018-07-13T16:41:02.808Z,25.50
2018-07-13T16:51:04.059Z,25.40
2018-07-13T17:01:05.350Z,25.40
2018-07-13T17:11:07.366Z,26.00
2018-07-13T17:21:09.156Z,26.00
2018-07-13T17:31:10.511Z,25.90
2018-07-13T17:41:12.064Z,25.70
2018-07-13T17:51:13.402Z,25.50
2018-07-13T18:01:14.802Z,25.10
2018-07-13T18:11:16.070Z,24.50
2018-07-13T18:41:32.598Z,22.80
2018-07-13T18:51:33.862Z,22.40
2018-07-13T19:01:35.098Z,21.70
2018-07-13T19:31:50.640Z,20.50
2018-07-13T19:41:51.907Z,20.30
2018-07-13T19:51:53.163Z,19.90
2018-07-13T20:01:54.411Z,19.50
2018-07-13T20:11:55.648Z,19.30
2018-07-13T20:32:04.692Z,18.80
2018-07-13T20:42:05.953Z,18.60
2018-07-13T20:52:07.196Z,18.40
2018-07-13T21:12:19.178Z,18.00
2018-07-13T21:22:20.410Z,17.80
2018-07-13T21:32:21.695Z,17.60
2018-07-13T21:42:22.963Z,17.50
2018-07-13T21:52:24.218Z,17.60
2018-07-13T22:02:25.466Z,17.50
2018-07-13T22:12:26.758Z,17.30
2018-07-13T22:22:28.806Z,17.00
2018-07-13T22:32:30.062Z,17.00
2018-07-13T23:02:45.587Z,16.70
2018-07-13T23:22:53.381Z,16.50
2018-07-13T23:32:54.658Z,16.30
2018-07-13T23:42:55.923Z,16.30
2018-07-13T23:52:57.958Z,16.10
